Time;durP1;ratioP1;P1;durP2;ratioP2;P2;SDS_P1;SDS_P2;PMS_P1;PMS_P2;Temp;Humidity;BMP_temperature;BMP_pressure;BME280_temperature;BME280_humidity;BME280_pressure;Samples;Min_cycle;Max_cycle;Signal;HPM_P1;HPM_P2
2022/07/22 00:02:00;;;;;;;2.38;2.17;;;;;;;;;;5077285;28;20020;-65
2022/07/22 00:04:25;;;;;;;4.68;2.58;;;;;;;;;;5077144;28;20351;-66
2022/07/22 00:06:51;;;;;;;2.42;2.17;;;;;;;;;;5077149;28;20445;-66
2022/07/22 00:09:16;;;;;;;4.55;2.40;;;;;;;;;;5059131;28;20074;-72
2022/07/22 00:11:42;;;;;;;2.50;2.30;;;;;;;;;;5076960;28;20078;-72
2022/07/22 00:14:07;;;;;;;2.75;2.20;;;;;;;;;;5076880;28;20017;-72
2022/07/22 00:16:32;;;;;;;5.47;2.30;;;;;;;;;;5077132;28;20156;-66
2022/07/22 00:18:58;;;;;;;3.55;2.60;;;;;;;;;;5077000;28;20024;-66
2022/07/22 00:21:26;;;;;;;3.05;2.20;;;;;;;;;;5076781;28;20025;-66
2022/07/22 00:23:51;;;;;;;5.32;2.35;;;;;;;;;;5076805;28;20127;-66
2022/07/22 00:26:17;;;;;;;3.58;2.38;;;;;;;;;;5076801;28;20125;-65
2022/07/22 00:28:43;;;;;;;2.70;2.50;;;;;;;;;;5077159;28;20029;-65
2022/07/22 00:31:10;;;;;;;2.08;1.95;;;;;;;;;;5076932;28;20024;-65
2022/07/22 00:33:35;;;;;;;1.98;1.73;;;;;;;;;;5076915;28;20021;-65
2022/07/22 00:36:01;;;;;;;3.17;2.10;;;;;;;;;;5076898;28;20526;-65
2022/07/22 00:38:26;;;;;;;5.22;2.05;;;;;;;;;;5076955;28;20024;-72
2022/07/22 00:40:52;;;;;;;3.85;2.65;;;;;;;;;;5058765;28;20036;-72
2022/07/22 00:43:18;;;;;;;2.88;2.30;;;;;;;;;;5076859;28;20342;-71
2022/07/22 00:45:44;;;;;;;3.42;2.30;;;;;;;;;;5076798;28;20031;-71
2022/07/22 00:48:09;;;;;;;2.40;2.28;;;;;;;;;;5058596;28;20012;-71
2022/07/22 00:50:35;;;;;;;3.15;2.90;;;;;;;;;;5058427;28;20487;-64
2022/07/22 00:53:00;;;;;;;3.25;2.30;;;;;;;;;;5076132;28;20024;-64
2022/07/22 00:55:27;;;;;;;3.92;3.03;;;;;;;;;;5076351;28;20036;-64
2022/07/22 00:57:52;;;;;;;5.05;2.90;;;;;;;;;;5058268;28;20020;-65
2022/07/22 01:00:21;;;;;;;3.17;2.95;;;;;;;;;;5058222;28;20044;-65
2022/07/22 01:02:46;;;;;;;2.53;2.33;;;;;;;;;;5076343;28;20024;-71
2022/07/22 01:05:12;;;;;;;3.20;2.70;;;;;;;;;;5076367;28;20062;-71
2022/07/22 01:07:38;;;;;;;2.60;2.40;;;;;;;;;;5076386;28;20348;-71
2022/07/22 01:10:04;;;;;;;2.75;2.55;;;;;;;;;;5074868;28;20028;-71
2022/07/22 01:12:29;;;;;;;2.83;2.63;;;;;;;;;;5076302;28;20027;-71
2022/07/22 01:14:55;;;;;;;3.38;2.50;;;;;;;;;;5057628;28;20044;-71
2022/07/22 01:17:20;;;;;;;4.15;2.80;;;;;;;;;;5057681;28;20020;-71
2022/07/22 01:19:46;;;;;;;2.85;2.58;;;;;;;;;;5075963;28;20111;-71
2022/07/22 01:22:11;;;;;;;3.20;2.35;;;;;;;;;;5057834;28;20049;-71
2022/07/22 01:24:37;;;;;;;2.45;2.28;;;;;;;;;;5058034;28;20098;-64
2022/07/22 01:27:02;;;;;;;3.45;2.40;;;;;;;;;;5076017;28;20031;-64
2022/07/22 01:29:28;;;;;;;4.32;2.65;;;;;;;;;;5057810;28;20082;-64
2022/07/22 01:31:55;;;;;;;2.88;2.53;;;;;;;;;;5057337;28;20111;-64
2022/07/22 01:34:20;;;;;;;6.25;2.63;;;;;;;;;;5057676;28;20087;-64
2022/07/22 01:36:46;;;;;;;3.42;2.17;;;;;;;;;;5057691;28;20031;-64
2022/07/22 01:39:11;;;;;;;2.50;2.30;;;;;;;;;;5075652;28;20032;-65
2022/07/22 01:41:37;;;;;;;2.53;2.03;;;;;;;;;;5057462;28;20032;-64
2022/07/22 01:44:05;;;;;;;2.47;2.25;;;;;;;;;;5057491;28;20025;-64
2022/07/22 01:46:31;;;;;;;2.60;2.40;;;;;;;;;;5075369;28;20095;-65
2022/07/22 01:48:57;;;;;;;2.65;2.22;;;;;;;;;;5057478;28;20078;-65
2022/07/22 01:51:22;;;;;;;2.53;2.30;;;;;;;;;;5057389;28;20419;-66
2022/07/22 01:53:48;;;;;;;2.53;2.33;;;;;;;;;;5057249;28;20028;-67
2022/07/22 01:56:14;;;;;;;2.70;2.50;;;;;;;;;;5057155;28;20406;-66
2022/07/22 01:58:46;;;;;;;3.10;2.90;;;;;;;;;;5057208;28;20028;-66
2022/07/22 02:01:13;;;;;;;3.47;3.00;;;;;;;;;;5057070;28;20388;-66
2022/07/22 02:03:39;;;;;;;4.68;2.72;;;;;;;;;;5074710;28;20021;-66
2022/07/22 02:06:06;;;;;;;3.83;2.92;;;;;;;;;;5056999;28;20127;-66
2022/07/22 02:08:32;;;;;;;2.63;2.42;;;;;;;;;;5057357;28;20076;-66
2022/07/22 02:11:06;;;;;;;4.18;2.30;;;;;;;;;;5075021;28;20103;-66
2022/07/22 02:13:33;;;;;;;2.80;2.60;;;;;;;;;;5056776;28;20479;-66
2022/07/22 02:15:58;;;;;;;3.05;2.40;;;;;;;;;;5056815;28;20052;-66
2022/07/22 02:18:25;;;;;;;2.83;2.35;;;;;;;;;;5057064;28;20086;-64
2022/07/22 02:20:51;;;;;;;2.53;2.33;;;;;;;;;;5040427;28;20016;-64
2022/07/22 02:23:18;;;;;;;3.22;2.92;;;;;;;;;;5056280;28;20534;-64
2022/07/22 02:25:44;;;;;;;3.30;2.30;;;;;;;;;;5056903;28;20016;-64
2022/07/22 02:28:10;;;;;;;2.53;2.40;;;;;;;;;;5056291;28;20539;-64
2022/07/22 02:30:35;;;;;;;2.55;2.45;;;;;;;;;;5056406;28;20016;-64
2022/07/22 02:33:01;;;;;;;2.85;2.63;;;;;;;;;;5056209;28;20064;-66
2022/07/22 02:35:26;;;;;;;2.53;2.33;;;;;;;;;;5056158;28;20078;-65
2022/07/22 02:37:52;;;;;;;4.38;2.63;;;;;;;;;;5074339;28;20036;-65
2022/07/22 02:40:17;;;;;;;3.33;3.03;;;;;;;;;;5056691;28;20025;-66
2022/07/22 02:42:43;;;;;;;2.92;2.63;;;;;;;;;;5056738;28;20102;-66
2022/07/22 02:45:09;;;;;;;2.75;2.55;;;;;;;;;;5056425;28;20399;-66
2022/07/22 02:47:35;;;;;;;2.65;2.45;;;;;;;;;;5056315;28;20415;-67
2022/07/22 02:50:00;;;;;;;2.95;2.72;;;;;;;;;;5055919;28;20047;-66
2022/07/22 02:52:26;;;;;;;4.13;2.72;;;;;;;;;;5056158;28;20067;-66
2022/07/22 02:54:52;;;;;;;5.68;3.10;;;;;;;;;;5056587;28;20469;-72
2022/07/22 02:57:17;;;;;;;3.33;2.67;;;;;;;;;;5056221;28;20038;-72
2022/07/22 02:59:43;;;;;;;3.42;2.88;;;;;;;;;;5056187;28;20035;-72
2022/07/22 03:02:08;;;;;;;3.05;2.75;;;;;;;;;;5055949;28;20036;-72
2022/07/22 03:04:33;;;;;;;3.38;3.08;;;;;;;;;;5055680;28;20067;-72
2022/07/22 03:06:59;;;;;;;3.00;2.67;;;;;;;;;;5056236;28;20021;-72
2022/07/22 03:09:25;;;;;;;5.25;2.95;;;;;;;;;;5039169;28;20017;-72
2022/07/22 03:11:50;;;;;;;2.90;2.70;;;;;;;;;;5055637;28;20032;-72
2022/07/22 03:14:18;;;;;;;2.92;2.63;;;;;;;;;;5056140;28;20060;-72
2022/07/22 03:16:44;;;;;;;3.17;2.95;;;;;;;;;;5056307;28;20087;-72
2022/07/22 03:19:09;;;;;;;2.90;2.70;;;;;;;;;;5055803;28;20029;-72
2022/07/22 03:21:35;;;;;;;3.33;2.97;;;;;;;;;;5055584;28;20419;-71
2022/07/22 03:24:00;;;;;;;3.40;2.70;;;;;;;;;;5055355;28;20467;-67
2022/07/22 03:26:26;;;;;;;3.30;2.85;;;;;;;;;;5056028;28;20364;-66
2022/07/22 03:28:51;;;;;;;3.05;2.75;;;;;;;;;;5073749;28;20377;-66
2022/07/22 03:31:17;;;;;;;2.90;2.70;;;;;;;;;;5055958;28;20043;-66
2022/07/22 03:33:43;;;;;;;3.28;2.92;;;;;;;;;;5057603;28;20420;-66
2022/07/22 03:36:09;;;;;;;3.22;2.83;;;;;;;;;;5059715;28;20028;-66
2022/07/22 03:38:37;;;;;;;4.07;3.22;;;;;;;;;;5059970;28;20062;-66
2022/07/22 03:41:03;;;;;;;4.10;3.05;;;;;;;;;;5059652;28;20040;-66
2022/07/22 03:43:29;;;;;;;3.20;2.92;;;;;;;;;;5060155;28;20020;-66
2022/07/22 03:45:55;;;;;;;4.63;2.92;;;;;;;;;;5059660;28;20158;-64
2022/07/22 03:48:20;;;;;;;3.25;2.83;;;;;;;;;;5059394;28;20024;-64
2022/07/22 03:50:46;;;;;;;5.43;3.30;;;;;;;;;;5059742;28;20020;-65
2022/07/22 03:53:12;;;;;;;4.65;3.10;;;;;;;;;;5043651;28;20039;-65
2022/07/22 03:55:39;;;;;;;3.35;2.80;;;;;;;;;;5059988;28;20024;-65
2022/07/22 03:58:06;;;;;;;3.63;2.92;;;;;;;;;;5059118;28;20423;-65
2022/07/22 04:00:31;;;;;;;3.85;3.08;;;;;;;;;;5059730;28;20055;-65
2022/07/22 04:02:59;;;;;;;4.25;3.17;;;;;;;;;;5059827;28;20020;-65
2022/07/22 04:05:47;;;;;;;3.55;3.22;;;;;;;;;;5068645;28;20035;-65
2022/07/22 04:08:18;;;;;;;3.40;2.92;;;;;;;;;;5059207;28;20036;-65
2022/07/22 04:10:44;;;;;;;3.60;2.97;;;;;;;;;;5059211;28;20023;-65
2022/07/22 04:13:10;;;;;;;3.10;2.80;;;;;;;;;;5059125;28;20016;-65
2022/07/22 04:15:42;;;;;;;3.20;2.90;;;;;;;;;;5059548;28;20128;-66
2022/07/22 04:18:08;;;;;;;5.28;3.00;;;;;;;;;;5059239;28;20060;-65
2022/07/22 04:20:34;;;;;;;3.88;2.75;;;;;;;;;;5058786;28;20521;-65
2022/07/22 04:23:18;;;;;;;3.47;3.15;;;;;;;;;;5077094;28;20396;-66
2022/07/22 04:25:44;;;;;;;3.22;2.90;;;;;;;;;;5058558;28;20029;-67
2022/07/22 04:28:10;;;;;;;4.40;3.25;;;;;;;;;;5042260;28;20099;-67
2022/07/22 04:30:37;;;;;;;3.17;2.97;;;;;;;;;;5041632;28;20048;-66
2022/07/22 04:33:03;;;;;;;3.28;3.00;;;;;;;;;;5057380;28;20101;-65
2022/07/22 04:35:28;;;;;;;4.82;3.25;;;;;;;;;;5040123;28;20056;-66
2022/07/22 04:38:08;;;;;;;4.15;2.95;;;;;;;;;;5057407;28;20419;-66
2022/07/22 04:40:36;;;;;;;4.07;2.78;;;;;;;;;;5057282;28;20033;-66
2022/07/22 04:43:01;;;;;;;3.10;2.92;;;;;;;;;;5057190;28;20016;-66
2022/07/22 04:45:27;;;;;;;4.03;3.30;;;;;;;;;;5055825;28;20050;-66
2022/07/22 04:47:52;;;;;;;4.63;3.30;;;;;;;;;;5040776;28;20017;-66
2022/07/22 04:50:18;;;;;;;4.00;3.65;;;;;;;;;;5057895;28;20031;-66
2022/07/22 04:52:43;;;;;;;4.32;3.33;;;;;;;;;;5075035;28;20445;-66
2022/07/22 04:55:09;;;;;;;5.32;3.28;;;;;;;;;;5057103;28;20028;-66
2022/07/22 04:57:34;;;;;;;4.93;3.40;;;;;;;;;;5056973;28;20066;-65
2022/07/22 05:00:03;;;;;;;7.10;4.25;;;;;;;;;;5056841;28;20594;-65
2022/07/22 05:02:31;;;;;;;4.87;3.57;;;;;;;;;;5056939;28;20016;-65
2022/07/22 05:04:58;;;;;;;5.63;3.33;;;;;;;;;;5056707;28;20297;-65
2022/07/22 05:07:23;;;;;;;7.53;3.25;;;;;;;;;;5057976;28;20027;-64
2022/07/22 05:09:49;;;;;;;4.68;3.58;;;;;;;;;;5076347;28;20016;-64
2022/07/22 05:12:14;;;;;;;6.20;3.53;;;;;;;;;;5057802;28;20024;-65
2022/07/22 05:14:40;;;;;;;3.75;3.38;;;;;;;;;;5057738;28;20033;-65
2022/07/22 05:17:08;;;;;;;3.50;3.20;;;;;;;;;;5075658;28;20025;-65
2022/07/22 05:19:36;;;;;;;6.20;3.60;;;;;;;;;;5057988;28;20437;-65
2022/07/22 05:22:05;;;;;;;;;;;;;;;;;;5057913;28;20449;-65
2022/07/22 05:24:30;;;;;;;6.05;3.95;;;;;;;;;;5057513;28;19966;-65
2022/07/22 05:26:57;;;;;;;6.75;4.32;;;;;;;;;;5057547;28;20021;-65
2022/07/22 05:29:22;;;;;;;6.13;3.80;;;;;;;;;;5058479;28;20021;-65
2022/07/22 05:31:48;;;;;;;7.72;4.47;;;;;;;;;;5057829;28;20023;-65
2022/07/22 05:34:14;;;;;;;6.25;4.55;;;;;;;;;;5057397;28;20498;-64
2022/07/22 05:36:48;;;;;;;12.05;4.65;;;;;;;;;;5057460;28;20020;-64
2022/07/22 05:39:15;;;;;;;8.00;5.28;;;;;;;;;;5057322;28;20028;-65
2022/07/22 05:41:41;;;;;;;5.72;4.70;;;;;;;;;;5057278;28;20017;-65
2022/07/22 05:44:07;;;;;;;9.38;5.95;;;;;;;;;;5057108;28;20036;-65
2022/07/22 05:46:33;;;;;;;8.35;6.30;;;;;;;;;;5057070;28;20357;-64
2022/07/22 05:48:59;;;;;;;8.98;6.50;;;;;;;;;;5040612;28;20020;-64
2022/07/22 05:51:25;;;;;;;6.18;5.47;;;;;;;;;;5056756;28;20464;-65
2022/07/22 05:53:51;;;;;;;9.93;6.63;;;;;;;;;;5074881;28;20025;-65
2022/07/22 05:56:16;;;;;;;6.97;6.28;;;;;;;;;;5057366;28;20139;-64
2022/07/22 05:58:42;;;;;;;7.03;6.28;;;;;;;;;;5056339;28;20589;-65
2022/07/22 06:01:08;;;;;;;6.88;6.22;;;;;;;;;;5056209;28;20074;-65
2022/07/22 06:03:34;;;;;;;9.68;6.72;;;;;;;;;;5056381;28;20055;-65
2022/07/22 06:06:01;;;;;;;7.50;6.07;;;;;;;;;;5056146;28;20052;-65
2022/07/22 06:08:27;;;;;;;6.43;5.80;;;;;;;;;;5073873;28;20021;-65
2022/07/22 06:10:52;;;;;;;7.88;6.65;;;;;;;;;;5055550;28;20099;-65
2022/07/22 06:13:19;;;;;;;7.85;7.03;;;;;;;;;;5055486;28;20033;-65
2022/07/22 06:15:45;;;;;;;6.88;6.15;;;;;;;;;;5055514;28;20020;-67
2022/07/22 06:18:11;;;;;;;7.93;7.13;;;;;;;;;;5055468;28;20029;-65
2022/07/22 06:20:36;;;;;;;7.65;6.65;;;;;;;;;;5055385;28;20074;-65
2022/07/22 06:23:02;;;;;;;9.30;7.20;;;;;;;;;;5073011;28;20136;-65
2022/07/22 06:25:28;;;;;;;12.15;8.02;;;;;;;;;;5055299;28;20028;-65
2022/07/22 06:27:55;;;;;;;8.98;7.68;;;;;;;;;;5055286;28;20047;-65
2022/07/22 06:30:20;;;;;;;9.38;7.68;;;;;;;;;;5055322;28;20349;-65
2022/07/22 06:32:46;;;;;;;8.75;6.53;;;;;;;;;;5055940;28;20112;-65
2022/07/22 06:35:11;;;;;;;11.88;6.95;;;;;;;;;;5056129;28;20044;-64
2022/07/22 06:37:37;;;;;;;8.93;7.78;;;;;;;;;;5055960;28;20399;-65
2022/07/22 06:40:03;;;;;;;13.80;7.80;;;;;;;;;;5073726;28;20660;-64
2022/07/22 06:42:46;;;;;;;8.05;6.65;;;;;;;;;;5072921;28;20025;-64
2022/07/22 06:45:31;;;;;;;8.88;6.75;;;;;;;;;;5055199;28;20028;-66
2022/07/22 06:48:10;;;;;;;11.57;7.88;;;;;;;;;;5054922;28;20031;-66
2022/07/22 06:50:37;;;;;;;7.85;6.20;;;;;;;;;;5054800;28;20032;-66
2022/07/22 06:53:08;;;;;;;8.00;6.68;;;;;;;;;;5054846;28;20119;-66
2022/07/22 06:55:34;;;;;;;7.97;7.22;;;;;;;;;;5054801;28;20107;-66
2022/07/22 06:58:04;;;;;;;8.15;6.50;;;;;;;;;;5072742;28;20379;-66
2022/07/22 07:00:30;;;;;;;11.60;7.97;;;;;;;;;;5072700;28;20111;-66
2022/07/22 07:03:14;;;;;;;11.85;8.82;;;;;;;;;;5072911;28;20090;-66
2022/07/22 07:05:40;;;;;;;12.70;9.32;;;;;;;;;;5054696;28;20028;-66
2022/07/22 07:08:06;;;;;;;12.18;7.90;;;;;;;;;;5037361;28;20078;-65
2022/07/22 07:10:32;;;;;;;13.30;8.57;;;;;;;;;;5054598;28;20082;-66
2022/07/22 07:13:04;;;;;;;12.98;9.40;;;;;;;;;;5054596;28;20446;-66
2022/07/22 07:15:43;;;;;;;14.65;9.50;;;;;;;;;;5054591;28;20120;-66
2022/07/22 07:18:09;;;;;;;15.15;9.82;;;;;;;;;;5054561;28;20059;-66
2022/07/22 07:20:35;;;;;;;14.75;11.35;;;;;;;;;;5054548;28;20418;-66
2022/07/22 07:23:02;;;;;;;11.48;8.27;;;;;;;;;;5054334;28;20051;-66
2022/07/22 07:25:29;;;;;;;12.70;9.10;;;;;;;;;;5054607;28;20365;-65
2022/07/22 07:27:55;;;;;;;15.20;9.00;;;;;;;;;;5054503;28;20032;-66
2022/07/22 07:30:34;;;;;;;13.02;9.75;;;;;;;;;;5054453;28;20380;-65
2022/07/22 07:33:02;;;;;;;11.10;8.65;;;;;;;;;;5054358;28;20029;-66
2022/07/22 07:35:28;;;;;;;11.45;8.93;;;;;;;;;;5054424;28;20030;-65
2022/07/22 07:37:54;;;;;;;11.85;7.90;;;;;;;;;;5054381;28;20024;-68
2022/07/22 07:40:19;;;;;;;8.73;7.82;;;;;;;;;;5054355;28;20055;-66
2022/07/22 07:42:45;;;;;;;9.15;7.93;;;;;;;;;;5054357;28;20439;-66
2022/07/22 07:45:11;;;;;;;8.10;7.22;;;;;;;;;;5054156;28;20422;-66
2022/07/22 07:47:36;;;;;;;11.18;8.32;;;;;;;;;;5054317;28;20060;-66
2022/07/22 07:50:03;;;;;;;17.98;9.10;;;;;;;;;;5054262;28;20102;-66
2022/07/22 07:52:29;;;;;;;9.05;7.55;;;;;;;;;;5072228;28;20028;-66
2022/07/22 07:54:55;;;;;;;10.30;9.02;;;;;;;;;;5054201;28;20031;-66
2022/07/22 07:57:21;;;;;;;12.50;9.32;;;;;;;;;;5072122;28;20062;-66
2022/07/22 07:59:46;;;;;;;11.07;9.10;;;;;;;;;;5054184;28;20031;-66
2022/07/22 08:02:12;;;;;;;12.70;8.50;;;;;;;;;;5054465;28;20043;-66
2022/07/22 08:04:38;;;;;;;10.20;9.13;;;;;;;;;;5072631;28;20059;-65
2022/07/22 08:07:08;;;;;;;8.63;7.82;;;;;;;;;;5055084;28;20496;-66
2022/07/22 08:09:35;;;;;;;9.82;8.35;;;;;;;;;;5055100;28;20055;-67
2022/07/22 08:12:04;;;;;;;8.52;7.63;;;;;;;;;;5055342;28;20483;-66
2022/07/22 08:14:57;;;;;;;9.70;7.47;;;;;;;;;;5055054;28;20123;-66
2022/07/22 08:17:26;;;;;;;10.32;9.23;;;;;;;;;;5055628;28;20036;-66
2022/07/22 08:19:51;;;;;;;10.57;9.27;;;;;;;;;;5056840;28;20380;-66
2022/07/22 08:22:17;;;;;;;10.82;8.75;;;;;;;;;;5041984;28;20041;-66
2022/07/22 08:24:44;;;;;;;11.93;8.52;;;;;;;;;;5058612;28;20506;-66
2022/07/22 08:27:14;;;;;;;11.68;8.00;;;;;;;;;;5058831;28;20020;-66
2022/07/22 08:29:40;;;;;;;10.93;9.27;;;;;;;;;;5058643;28;20100;-66
2022/07/22 08:32:05;;;;;;;13.00;9.00;;;;;;;;;;5058589;28;20115;-70
2022/07/22 08:34:31;;;;;;;13.27;9.90;;;;;;;;;;5042424;28;20392;-66
2022/07/22 08:36:56;;;;;;;11.85;9.43;;;;;;;;;;5058524;28;20552;-66
2022/07/22 08:39:22;;;;;;;11.48;8.73;;;;;;;;;;5058457;28;20549;-67
2022/07/22 08:41:48;;;;;;;10.93;9.25;;;;;;;;;;5058626;28;20024;-67
2022/07/22 08:44:14;;;;;;;9.38;8.50;;;;;;;;;;5058190;28;20122;-67
2022/07/22 08:46:39;;;;;;;12.95;9.13;;;;;;;;;;5058254;28;20056;-67
2022/07/22 08:49:25;;;;;;;9.88;8.88;;;;;;;;;;5062254;28;20016;-67
2022/07/22 08:51:51;;;;;;;11.77;9.43;;;;;;;;;;5076089;28;20086;-67
2022/07/22 08:54:19;;;;;;;11.07;9.20;;;;;;;;;;5042029;28;20040;-67
2022/07/22 08:56:49;;;;;;;9.95;8.88;;;;;;;;;;5058254;28;20091;-68
2022/07/22 08:59:14;;;;;;;9.88;8.88;;;;;;;;;;5058041;28;20024;-68
2022/07/22 09:01:59;;;;;;;12.40;9.38;;;;;;;;;;5041447;28;20086;-68
2022/07/22 09:04:24;;;;;;;9.23;8.13;;;;;;;;;;5076422;28;20144;-67
2022/07/22 09:06:50;;;;;;;9.70;8.73;;;;;;;;;;5058015;28;20048;-67
2022/07/22 09:09:16;;;;;;;10.60;8.98;;;;;;;;;;5057944;28;20025;-67
2022/07/22 09:12:14;;;;;;;8.25;7.50;;;;;;;;;;5031410;28;20112;-68
2022/07/22 09:14:51;;;;;;;9.38;8.43;;;;;;;;;;5075989;28;20020;-67
2022/07/22 09:17:36;;;;;;;10.13;7.90;;;;;;;;;;5075967;28;20135;-67
2022/07/22 09:20:20;;;;;;;9.85;8.82;;;;;;;;;;5076453;28;20035;-67
2022/07/22 09:23:09;;;;;;;11.75;9.73;;;;;;;;;;5074817;28;20055;-67
2022/07/22 09:25:34;;;;;;;;;;;;;;;;;;5057708;28;20029;-67
2022/07/22 09:28:22;;;;;;;7.90;7.10;;;;;;;;;;5033880;28;19904;-67
2022/07/22 09:31:23;;;;;;;10.63;8.20;;;;;;;;;;5074707;28;20032;-67
2022/07/22 09:33:49;;;;;;;11.23;8.80;;;;;;;;;;5041092;28;20483;-67
2022/07/22 09:36:20;;;;;;;9.50;8.60;;;;;;;;;;5041554;28;20058;-67
2022/07/22 09:38:47;;;;;;;10.02;8.90;;;;;;;;;;5056935;28;20028;-67
2022/07/22 09:41:13;;;;;;;8.90;7.55;;;;;;;;;;5057286;28;20032;-68
2022/07/22 09:43:39;;;;;;;8.48;7.53;;;;;;;;;;5074045;28;20039;-67
2022/07/22 09:46:06;;;;;;;9.98;8.75;;;;;;;;;;5056102;28;20403;-68
2022/07/22 09:48:50;;;;;;;11.88;8.40;;;;;;;;;;5074270;28;20257;-67
2022/07/22 09:51:34;;;;;;;9.10;8.20;;;;;;;;;;5074213;28;20085;-67
2022/07/22 09:54:23;;;;;;;9.23;8.43;;;;;;;;;;5044896;28;20178;-67
2022/07/22 09:56:49;;;;;;;10.82;8.63;;;;;;;;;;5055867;28;20408;-67
2022/07/22 09:59:17;;;;;;;8.63;7.80;;;;;;;;;;5055935;28;20677;-67
2022/07/22 10:01:51;;;;;;;8.98;8.18;;;;;;;;;;5055897;28;20090;-67
2022/07/22 10:04:19;;;;;;;11.15;8.23;;;;;;;;;;5055688;28;20033;-67
2022/07/22 10:06:45;;;;;;;9.07;8.18;;;;;;;;;;5055833;28;20028;-68
2022/07/22 10:09:16;;;;;;;9.38;7.85;;;;;;;;;;5039350;28;20058;-67
2022/07/22 10:11:46;;;;;;;8.82;7.57;;;;;;;;;;5056182;28;20028;-68
2022/07/22 10:14:16;;;;;;;8.15;6.80;;;;;;;;;;5056172;28;20400;-67
2022/07/22 10:16:43;;;;;;;8.38;7.20;;;;;;;;;;5055954;28;20534;-67
2022/07/22 10:19:09;;;;;;;9.43;7.43;;;;;;;;;;5056230;28;20017;-67
2022/07/22 10:21:35;;;;;;;10.40;8.00;;;;;;;;;;5056249;28;20380;-67
2022/07/22 10:24:07;;;;;;;8.18;7.32;;;;;;;;;;5073350;28;20044;-67
2022/07/22 10:26:46;;;;;;;9.18;7.75;;;;;;;;;;5055326;28;20067;-67
2022/07/22 10:29:26;;;;;;;8.50;7.30;;;;;;;;;;5073226;28;20024;-67
2022/07/22 10:32:11;;;;;;;8.13;7.28;;;;;;;;;;5073171;28;20108;-67
2022/07/22 10:34:37;;;;;;;8.80;6.85;;;;;;;;;;5072985;28;20244;-67
2022/07/22 10:37:02;;;;;;;9.18;7.72;;;;;;;;;;5073109;28;20107;-67
2022/07/22 10:39:28;;;;;;;8.63;7.75;;;;;;;;;;5072974;28;20025;-67
2022/07/22 10:41:53;;;;;;;8.15;7.55;;;;;;;;;;5072933;28;20024;-67
2022/07/22 10:44:38;;;;;;;7.97;7.20;;;;;;;;;;5054883;28;20029;-67
2022/07/22 10:47:03;;;;;;;9.57;7.38;;;;;;;;;;5072998;28;20476;-67
2022/07/22 10:49:29;;;;;;;8.10;7.18;;;;;;;;;;5072934;28;20016;-67
2022/07/22 10:52:22;;;;;;;8.73;7.93;;;;;;;;;;5072851;28;20444;-67
2022/07/22 10:55:06;;;;;;;7.80;7.05;;;;;;;;;;5069707;28;20078;-67
2022/07/22 10:57:31;;;;;;;11.00;6.32;;;;;;;;;;5054901;28;20039;-67
2022/07/22 10:59:57;;;;;;;8.27;7.47;;;;;;;;;;5054825;28;20024;-67
2022/07/22 11:02:23;;;;;;;8.43;7.40;;;;;;;;;;5054889;28;20358;-67
2022/07/22 11:04:49;;;;;;;8.60;6.28;;;;;;;;;;5072594;28;20349;-67
2022/07/22 11:07:14;;;;;;;8.80;7.28;;;;;;;;;;5072678;28;20039;-68
2022/07/22 11:09:40;;;;;;;8.40;7.63;;;;;;;;;;5072588;28;20418;-68
2022/07/22 11:12:11;;;;;;;9.88;7.72;;;;;;;;;;5072553;28;20537;-67
2022/07/22 11:14:37;;;;;;;7.72;6.90;;;;;;;;;;5072566;28;20036;-68
2022/07/22 11:17:08;;;;;;;10.60;8.23;;;;;;;;;;5054564;28;20029;-68
2022/07/22 11:19:37;;;;;;;7.85;7.15;;;;;;;;;;5072479;28;20033;-68
2022/07/22 11:22:06;;;;;;;7.25;6.55;;;;;;;;;;5054246;28;20023;-68
2022/07/22 11:24:33;;;;;;;7.78;6.90;;;;;;;;;;5072333;28;20037;-68
2022/07/22 11:26:58;;;;;;;7.57;6.88;;;;;;;;;;5054439;28;20040;-68
2022/07/22 11:29:26;;;;;;;7.40;6.70;;;;;;;;;;5072380;28;20051;-68
2022/07/22 11:31:52;;;;;;;7.05;6.45;;;;;;;;;;5054557;28;20028;-68
2022/07/22 11:34:17;;;;;;;7.45;6.75;;;;;;;;;;5072365;28;20143;-68
2022/07/22 11:36:44;;;;;;;7.70;6.82;;;;;;;;;;5072388;28;20115;-68
2022/07/22 11:39:10;;;;;;;7.38;6.68;;;;;;;;;;5072351;28;20025;-68
2022/07/22 11:41:36;;;;;;;7.22;6.78;;;;;;;;;;5054286;28;20048;-68
2022/07/22 11:44:02;;;;;;;7.30;6.70;;;;;;;;;;5072204;28;20072;-68
2022/07/22 11:46:28;;;;;;;7.60;6.85;;;;;;;;;;5072193;28;20051;-68
2022/07/22 11:48:54;;;;;;;8.35;6.68;;;;;;;;;;5072210;28;20425;-68
2022/07/22 11:51:19;;;;;;;7.78;7.07;;;;;;;;;;5072216;28;20017;-69
2022/07/22 11:53:45;;;;;;;8.68;6.80;;;;;;;;;;5054359;28;20392;-69
2022/07/22 11:56:10;;;;;;;7.05;6.45;;;;;;;;;;5076104;28;20024;-69
2022/07/22 11:58:46;;;;;;;7.05;6.38;;;;;;;;;;5076167;28;20407;-67
2022/07/22 12:01:16;;;;;;;6.80;6.18;;;;;;;;;;5058105;28;20055;-64
2022/07/22 12:03:41;;;;;;;;;;;;;;;;;;5076351;28;20025;-68
2022/07/22 12:06:09;;;;;;;6.73;5.97;;;;;;;;;;5075904;28;19915;-68
2022/07/22 12:08:35;;;;;;;6.75;5.97;;;;;;;;;;5075932;28;20082;-68
2022/07/22 12:11:01;;;;;;;7.43;6.72;;;;;;;;;;5075831;28;20412;-68
2022/07/22 12:13:30;;;;;;;6.78;6.07;;;;;;;;;;5075781;28;20029;-68
2022/07/22 12:15:55;;;;;;;7.38;6.70;;;;;;;;;;5075727;28;20430;-75
2022/07/22 12:18:22;;;;;;;7.13;6.40;;;;;;;;;;5075748;28;20115;-68
2022/07/22 12:20:48;;;;;;;7.15;6.07;;;;;;;;;;5057844;28;20078;-68
2022/07/22 12:23:14;;;;;;;6.78;6.18;;;;;;;;;;5075325;28;20051;-69
2022/07/22 12:25:49;;;;;;;6.88;6.28;;;;;;;;;;5057674;28;20032;-69
2022/07/22 12:28:14;;;;;;;8.48;7.30;;;;;;;;;;5075486;28;20032;-69
2022/07/22 12:30:41;;;;;;;8.18;7.38;;;;;;;;;;5075468;28;20384;-69
2022/07/22 12:33:12;;;;;;;11.43;7.22;;;;;;;;;;5075430;28;20055;-69
2022/07/22 12:35:38;;;;;;;7.38;6.65;;;;;;;;;;5075422;28;20028;-69
2022/07/22 12:38:07;;;;;;;7.68;6.97;;;;;;;;;;5075373;28;20482;-69
2022/07/22 12:40:33;;;;;;;6.22;5.63;;;;;;;;;;5075530;28;20360;-70
2022/07/22 12:43:00;;;;;;;9.23;6.75;;;;;;;;;;5075423;28;20095;-67
2022/07/22 12:45:26;;;;;;;5.60;5.10;;;;;;;;;;5075473;28;20039;-68
2022/07/22 12:48:03;;;;;;;5.93;4.40;;;;;;;;;;5075276;28;20096;-68
2022/07/22 12:50:42;;;;;;;4.93;4.53;;;;;;;;;;5075177;28;20024;-68
2022/07/22 12:53:14;;;;;;;6.05;4.60;;;;;;;;;;5075454;28;20091;-68
2022/07/22 12:55:42;;;;;;;5.18;4.68;;;;;;;;;;5075067;28;20031;-68
2022/07/22 12:58:08;;;;;;;5.55;4.72;;;;;;;;;;5075027;28;20032;-68
2022/07/22 13:00:38;;;;;;;5.00;4.60;;;;;;;;;;5074993;28;20108;-68
2022/07/22 13:03:03;;;;;;;5.43;5.05;;;;;;;;;;5074945;28;20111;-68
2022/07/22 13:05:29;;;;;;;5.35;5.00;;;;;;;;;;5074085;28;20099;-68
2022/07/22 13:07:54;;;;;;;6.32;5.78;;;;;;;;;;5075132;28;20402;-68
2022/07/22 13:10:21;;;;;;;5.85;5.25;;;;;;;;;;5074823;28;20528;-68
2022/07/22 13:12:46;;;;;;;6.22;5.72;;;;;;;;;;5075008;28;20024;-68
2022/07/22 13:15:12;;;;;;;5.80;5.25;;;;;;;;;;5056793;28;20024;-68
2022/07/22 13:17:38;;;;;;;9.75;6.90;;;;;;;;;;5074737;28;20025;-69
2022/07/22 13:20:04;;;;;;;6.80;6.05;;;;;;;;;;5074693;28;20027;-69
2022/07/22 13:22:30;;;;;;;7.10;6.55;;;;;;;;;;5074326;28;20561;-69
2022/07/22 13:24:55;;;;;;;7.32;6.10;;;;;;;;;;5073029;28;20032;-69
2022/07/22 13:27:20;;;;;;;7.25;6.63;;;;;;;;;;5049625;28;20019;-69
2022/07/22 13:29:46;;;;;;;7.03;6.43;;;;;;;;;;5053318;28;20578;-69
2022/07/22 13:32:11;;;;;;;7.10;6.40;;;;;;;;;;5070777;28;20017;-69
2022/07/22 13:34:37;;;;;;;7.60;7.00;;;;;;;;;;5052346;28;20408;-69
2022/07/22 13:37:02;;;;;;;7.15;6.55;;;;;;;;;;5070709;28;20020;-69
2022/07/22 13:39:28;;;;;;;7.25;6.65;;;;;;;;;;5070612;28;20636;-69
2022/07/22 13:41:53;;;;;;;7.47;6.75;;;;;;;;;;5070736;28;20051;-69
2022/07/22 13:44:19;;;;;;;7.38;6.78;;;;;;;;;;5053031;28;20391;-69
2022/07/22 13:46:45;;;;;;;7.57;6.93;;;;;;;;;;5055334;28;20017;-68
2022/07/22 13:49:11;;;;;;;7.18;6.50;;;;;;;;;;5072774;28;20495;-69
2022/07/22 13:51:39;;;;;;;7.32;6.70;;;;;;;;;;5073832;28;20163;-69
2022/07/22 13:54:04;;;;;;;7.75;7.18;;;;;;;;;;5073444;28;20028;-68
2022/07/22 13:56:30;;;;;;;7.40;6.80;;;;;;;;;;5073856;28;20114;-69
2022/07/22 13:58:57;;;;;;;6.93;6.30;;;;;;;;;;5056044;28;20085;-69
2022/07/22 14:01:22;;;;;;;8.52;6.88;;;;;;;;;;5073794;28;20460;-69
2022/07/22 14:03:47;;;;;;;8.90;6.68;;;;;;;;;;5073008;28;20036;-69
2022/07/22 14:06:13;;;;;;;7.13;6.55;;;;;;;;;;5072174;28;20024;-69
2022/07/22 14:08:38;;;;;;;6.90;6.25;;;;;;;;;;5073456;28;20020;-69
2022/07/22 14:11:04;;;;;;;7.80;7.00;;;;;;;;;;5073559;28;20019;-69
2022/07/22 14:13:29;;;;;;;6.57;6.05;;;;;;;;;;5073516;28;20028;-69
2022/07/22 14:15:55;;;;;;;6.80;6.30;;;;;;;;;;5073508;28;20028;-69
2022/07/22 14:18:20;;;;;;;7.07;6.47;;;;;;;;;;5055272;28;20036;-69
2022/07/22 14:20:46;;;;;;;7.03;6.43;;;;;;;;;;5073407;28;20047;-69
2022/07/22 14:23:13;;;;;;;6.60;6.15;;;;;;;;;;5073024;28;20565;-69
2022/07/22 14:25:39;;;;;;;7.03;6.43;;;;;;;;;;5055350;28;20028;-69
2022/07/22 14:28:05;;;;;;;6.30;5.90;;;;;;;;;;5038783;28;20380;-69
2022/07/22 14:30:31;;;;;;;6.03;5.57;;;;;;;;;;5073455;28;20021;-69
2022/07/22 14:32:56;;;;;;;5.90;5.40;;;;;;;;;;5073291;28;20422;-69
2022/07/22 14:35:22;;;;;;;5.57;5.18;;;;;;;;;;5073375;28;20029;-69
2022/07/22 14:37:47;;;;;;;6.22;5.68;;;;;;;;;;5073093;28;20024;-68
2022/07/22 14:40:13;;;;;;;5.85;5.32;;;;;;;;;;5073045;28;20066;-69
2022/07/22 14:42:39;;;;;;;5.88;5.47;;;;;;;;;;5072996;28;20048;-69
2022/07/22 14:45:05;;;;;;;5.68;5.28;;;;;;;;;;5072907;28;20119;-69